This is the latest recevied weather packets stored in our database for station/object N0NB. If no packets are shown the sender has not sent any weather packets the latest 10 day(s).
| Time | Temp. | Humidity | Pressure | Rain* | Wind** | Luminosity | Snow |
|---|---|---|---|---|---|---|---|
| 1777517716 | 8.89° C | 75% | 1017.3 hPa | 0 mm | - | 0 W/m² | - |
| 1777517116 | 9.44° C | 74% | 1017.2 hPa | 0 mm | - | 0 W/m² | - |
| 1777516516 | 9.44° C | 74% | 1017 hPa | 0 mm | - | 0 W/m² | - |
| 1777515916 | 10° C | 71% | 1017 hPa | 0 mm | - | 0 W/m² | - |
| 1777515316 | 10.56° C | 69% | 1017 hPa | 0 mm | - | 0 W/m² | - |
| 1777514716 | 11.11° C | 66% | 1016.9 hPa | 0 mm | - | 0 W/m² | - |
| 1777514116 | 11.67° C | 64% | 1016.8 hPa | 0 mm | - | 0 W/m² | - |
| 1777513516 | 12.22° C | 61% | 1016.7 hPa | 0 mm | - | 0 W/m² | - |
| 1777512916 | 13.33° C | 59% | 1016.6 hPa | 0 mm | - | 0 W/m² | - |
| 1777512316 | 14.44° C | 55% | 1016.7 hPa | 0 mm | - | 0 W/m² | - |
| 1777511716 | 15° C | 52% | 1016.8 hPa | 0 mm | - | 7 W/m² | - |
| 1777511116 | 15.56° C | 48% | 1016.6 hPa | 0 mm | - | 13 W/m² | - |
| 1777510516 | 16.67° C | 46% | 1016.7 hPa | 0 mm | - | 24 W/m² | - |
| 1777509916 | 17.22° C | 42% | 1016.8 hPa | 0 mm | - | 43 W/m² | - |
| 1777509316 | 17.22° C | 45% | 1016.6 hPa | 0 mm | - | 68 W/m² | - |
| 1777508716 | 17.22° C | 44% | 1016.6 hPa | 0 mm | - | 97 W/m² | - |
| 1777508116 | 17.22° C | 43% | 1016.7 hPa | 0 mm | - | 130 W/m² | - |
| 1777507516 | 17.78° C | 41% | 1016.6 hPa | 0 mm | - | 164 W/m² | - |
| 1777506916 | 17.22° C | 42% | 1016.8 hPa | 0 mm | - | 202 W/m² | - |
| 1777506316 | 17.22° C | 43% | 1016.8 hPa | 0 mm | - | 216 W/m² | - |
| 1777505716 | 17.78° C | 42% | 1017 hPa | 0 mm | - | 265 W/m² | - |
| 1777505116 | 17.78° C | 45% | 1016.9 hPa | 0 mm | - | 296 W/m² | - |
| 1777504516 | 17.78° C | 43% | 1016.9 hPa | 0 mm | - | 332 W/m² | - |
| 1777503916 | 18.33° C | 45% | 1017 hPa | 0 mm | - | 359 W/m² | - |
| 1777503316 | 17.78° C | 42% | 1016.9 hPa | 0 mm | - | 392 W/m² | - |
* Rain latest hour (hover to see other rain measurements)
** Current wind speed in m/s (hover to see current wind gust speed)